createdAt,value
2022-08-04T00:02:53.434Z,76.59
2022-08-04T00:06:03.213Z,76.50
2022-08-04T00:09:14.164Z,76.58
2022-08-04T00:11:59.948Z,76.74
2022-08-04T00:14:37.052Z,76.84
2022-08-04T00:17:38.716Z,77.04
2022-08-04T00:20:27.445Z,77.16
2022-08-04T00:23:10.808Z,77.22
2022-08-04T00:25:49.791Z,77.29
2022-08-04T00:28:26.464Z,77.50
2022-08-04T00:31:05.307Z,77.81
2022-08-04T00:33:51.214Z,78.09
2022-08-04T00:36:25.869Z,78.09
2022-08-04T00:38:58.364Z,78.28
2022-08-04T00:41:56.567Z,78.64
2022-08-04T00:44:43.892Z,78.95
2022-08-04T00:47:44.253Z,79.24
2022-08-04T00:54:03.102Z,79.54
2022-08-04T01:00:44.331Z,80.34
2022-08-04T01:03:21.715Z,80.58
2022-08-04T01:06:05.477Z,80.58
2022-08-04T01:13:23.273Z,80.85
2022-08-04T01:16:06.211Z,81.34
2022-08-04T01:19:10.344Z,81.61
2022-08-04T01:23:03.139Z,81.53
2022-08-04T01:26:43.151Z,81.83
2022-08-04T01:29:42.296Z,82.11
2022-08-04T01:32:38.324Z,82.37
2022-08-04T01:35:21.825Z,82.49
2022-08-04T01:38:20.142Z,82.77
2022-08-04T01:41:58.466Z,82.86
2022-08-04T01:44:39.816Z,83.01
2022-08-04T01:50:45.597Z,83.29
2022-08-04T01:53:32.948Z,83.35
2022-08-04T02:02:14.826Z,83.99
2022-08-04T02:04:49.669Z,84.03
2022-08-04T02:07:32.592Z,84.28
2022-08-04T02:10:32.387Z,84.41
2022-08-04T02:13:15.895Z,84.79
2022-08-04T02:16:01.723Z,85.10
2022-08-04T02:19:04.347Z,85.27
2022-08-04T02:21:43.350Z,85.88
2022-08-04T02:24:18.494Z,86.57
2022-08-04T02:26:55.380Z,86.38
2022-08-04T02:29:34.291Z,86.23
2022-08-04T02:32:56.633Z,86.33
2022-08-04T02:35:37.729Z,86.19
2022-08-04T02:38:43.409Z,86.48
2022-08-04T02:41:44.213Z,86.49
2022-08-04T02:44:16.764Z,86.71
2022-08-04T02:47:18.671Z,86.77
2022-08-04T02:49:54.470Z,86.87
2022-08-04T02:52:33.791Z,86.92
2022-08-04T02:55:13.973Z,87.01
2022-08-04T02:58:12.146Z,87.40
2022-08-04T03:00:46.444Z,87.63
2022-08-04T03:03:35.537Z,87.72
2022-08-04T03:06:55.633Z,87.94
2022-08-04T03:10:09.782Z,88.42
2022-08-04T03:16:49.870Z,88.73
2022-08-04T03:19:50.767Z,88.85
2022-08-04T03:23:13.018Z,88.76
2022-08-04T03:26:08.347Z,88.79
2022-08-04T03:33:11.690Z,89.11
2022-08-04T03:40:31.496Z,89.46
2022-08-04T03:47:33.915Z,90.37
2022-08-04T03:51:35.093Z,90.16
2022-08-04T03:58:31.845Z,90.14
2022-08-04T04:01:24.930Z,90.25
2022-08-04T04:04:32.006Z,90.30
2022-08-04T04:08:02.011Z,90.38
2022-08-04T04:10:58.269Z,90.48
2022-08-04T04:14:19.088Z,90.43
2022-08-04T04:17:27.047Z,90.51
2022-08-04T04:24:12.621Z,90.41
2022-08-04T04:27:04.275Z,90.50
2022-08-04T04:33:30.188Z,89.97
2022-08-04T04:39:44.601Z,89.19
2022-08-04T04:46:03.715Z,88.16
2022-08-04T04:48:44.274Z,87.56
2022-08-04T04:51:23.808Z,87.21
2022-08-04T04:54:20.923Z,86.66
2022-08-04T04:57:54.386Z,86.24
2022-08-04T05:00:59.594Z,86.02
2022-08-04T05:03:57.434Z,85.50
2022-08-04T05:10:29.039Z,84.46
2022-08-04T05:14:36.729Z,84.12
2022-08-04T05:16:18.251Z,83.50
2022-08-04T05:19:07.327Z,83.31
2022-08-04T05:21:45.959Z,82.79
2022-08-04T05:24:48.067Z,81.89
2022-08-04T05:27:27.354Z,80.81
2022-08-04T05:30:25.130Z,80.40
2022-08-04T05:33:08.238Z,79.77
2022-08-04T05:36:17.837Z,79.11
2022-08-04T05:39:14.765Z,78.90
2022-08-04T05:43:00.203Z,77.99
2022-08-04T05:46:01.467Z,77.21
2022-08-04T05:49:00.117Z,75.58
2022-08-04T05:52:00.814Z,74.91
2022-08-04T05:54:43.688Z,73.49
2022-08-04T05:57:30.215Z,73.54
2022-08-04T06:01:16.068Z,73.27
2022-08-04T06:08:12.153Z,70.84
2022-08-04T06:10:39.938Z,70.40
2022-08-04T06:19:58.985Z,68.73
2022-08-04T06:22:55.375Z,68.26
2022-08-04T06:25:33.770Z,67.47
2022-08-04T06:28:10.900Z,67.15
2022-08-04T06:30:47.800Z,66.70
2022-08-04T06:33:54.755Z,66.38
2022-08-04T06:37:40.723Z,65.34
2022-08-04T06:40:30.983Z,64.97
2022-08-04T06:43:09.914Z,64.16
2022-08-04T06:45:51.860Z,63.68
2022-08-04T06:48:50.232Z,63.61
2022-08-04T06:51:36.220Z,63.36
2022-08-04T06:58:47.198Z,62.16
2022-08-04T07:01:43.906Z,61.78
2022-08-04T07:04:17.233Z,61.56
2022-08-04T07:07:18.324Z,61.22
2022-08-04T07:09:54.983Z,60.87
2022-08-04T07:12:29.650Z,60.50
2022-08-04T07:15:14.830Z,59.16
2022-08-04T07:17:59.999Z,57.46
2022-08-04T07:21:03.131Z,57.65
2022-08-04T07:23:40.557Z,56.13
2022-08-04T07:27:02.992Z,55.63
2022-08-04T07:29:38.929Z,55.42
2022-08-04T07:32:13.795Z,54.94
2022-08-04T07:36:03.974Z,54.14
2022-08-04T07:38:14.644Z,53.87
2022-08-04T07:44:10.849Z,53.59
2022-08-04T07:47:31.108Z,53.14
2022-08-04T07:50:52.261Z,52.53
2022-08-04T07:53:56.489Z,51.41
2022-08-04T07:56:34.220Z,50.32
2022-08-04T07:59:08.748Z,48.35
2022-08-04T08:01:43.470Z,47.39
2022-08-04T08:04:16.552Z,47.05
2022-08-04T08:06:49.972Z,47.06
2022-08-04T08:09:25.327Z,47.28
2022-08-04T08:12:38.380Z,46.89
2022-08-04T08:15:00.722Z,45.91
2022-08-04T08:17:58.322Z,45.84
2022-08-04T08:20:32.309Z,45.02
2022-08-04T08:23:07.300Z,44.86
2022-08-04T08:25:44.209Z,44.32
2022-08-04T08:28:19.294Z,44.69
2022-08-04T08:30:53.885Z,44.43
2022-08-04T08:33:37.817Z,44.35
2022-08-04T08:36:26.927Z,44.15
2022-08-04T08:39:08.216Z,43.87
2022-08-04T08:42:16.476Z,43.58
2022-08-04T08:45:30.467Z,42.67
2022-08-04T08:48:38.586Z,42.33
2022-08-04T08:51:40.551Z,42.34
2022-08-04T08:58:18.004Z,41.22
2022-08-04T09:01:04.144Z,40.50
2022-08-04T09:04:06.855Z,40.03
2022-08-04T09:07:10.322Z,39.94
2022-08-04T09:10:10.471Z,39.93
2022-08-04T09:12:58.834Z,38.97
2022-08-04T09:15:39.512Z,38.21
2022-08-04T09:21:27.632Z,38.33
2022-08-04T09:24:34.660Z,38.54
2022-08-04T09:27:03.949Z,38.92
2022-08-04T09:29:44.792Z,38.83
2022-08-04T09:32:23.246Z,39.05
2022-08-04T09:35:08.608Z,38.86
2022-08-04T09:37:49.088Z,38.04
2022-08-04T09:40:29.290Z,38.17
2022-08-04T09:44:40.799Z,37.98
2022-08-04T09:46:39.693Z,37.89
2022-08-04T09:49:16.543Z,37.70
2022-08-04T09:51:57.191Z,37.65
2022-08-04T09:54:40.241Z,37.84
2022-08-04T09:57:16.836Z,37.95
2022-08-04T10:00:02.507Z,37.82
2022-08-04T10:02:45.557Z,36.87
2022-08-04T10:05:31.723Z,37.22
2022-08-04T10:08:27.781Z,37.43
2022-08-04T10:11:35.755Z,37.49
2022-08-04T10:14:51.350Z,37.34
2022-08-04T10:17:43.639Z,37.45
2022-08-04T10:20:55.492Z,36.96
2022-08-04T10:30:28.887Z,36.31
2022-08-04T10:33:53.846Z,36.77
2022-08-04T10:36:41.353Z,36.68
2022-08-04T10:39:42.950Z,36.60
2022-08-04T10:46:22.029Z,35.95
2022-08-04T10:52:37.778Z,36.60
2022-08-04T10:55:18.850Z,36.48
2022-08-04T10:57:59.526Z,36.11
2022-08-04T11:00:46.291Z,36.51
2022-08-04T11:03:52.152Z,36.21
2022-08-04T11:06:57.889Z,36.29
2022-08-04T11:09:58.943Z,36.53
2022-08-04T11:13:06.888Z,36.31
2022-08-04T11:16:48.122Z,36.54
2022-08-04T11:20:18.245Z,36.23
2022-08-04T11:23:27.187Z,36.36
2022-08-04T11:26:12.253Z,36.71
2022-08-04T11:30:04.214Z,36.60
2022-08-04T11:33:03.464Z,35.45
2022-08-04T11:36:11.085Z,35.76
2022-08-04T11:45:05.855Z,34.90
2022-08-04T11:47:43.194Z,34.42
2022-08-04T11:50:22.242Z,34.14
2022-08-04T11:52:58.127Z,33.69
2022-08-04T11:55:31.774Z,33.88
2022-08-04T11:58:27.695Z,33.50
2022-08-04T12:01:07.911Z,33.32
2022-08-04T12:04:03.757Z,33.36
2022-08-04T12:06:56.897Z,32.75
2022-08-04T12:09:40.264Z,32.26
2022-08-04T12:12:32.119Z,32.24
2022-08-04T12:15:18.432Z,31.68
2022-08-04T12:18:03.884Z,31.75
2022-08-04T12:25:05.773Z,30.75
2022-08-04T12:27:44.986Z,29.93
2022-08-04T12:31:00.105Z,29.72
2022-08-04T12:34:03.841Z,30.00
2022-08-04T12:36:38.755Z,29.84
2022-08-04T12:50:51.945Z,28.65
2022-08-04T12:57:04.581Z,27.94
2022-08-04T13:00:29.761Z,27.64
2022-08-04T13:07:10.296Z,26.47
2022-08-04T13:10:09.278Z,25.95
2022-08-04T13:13:18.908Z,25.76
2022-08-04T13:16:08.724Z,25.97
2022-08-04T13:19:05.427Z,25.95
2022-08-04T13:22:30.974Z,26.13
2022-08-04T13:26:43.811Z,25.53
2022-08-04T13:32:30.388Z,25.50
2022-08-04T13:38:28.257Z,25.32
2022-08-04T13:41:30.908Z,25.36
2022-08-04T13:44:33.122Z,24.83
2022-08-04T13:51:05.291Z,24.88
2022-08-04T13:53:42.479Z,25.20
2022-08-04T13:56:20.876Z,24.56
2022-08-04T13:59:23.729Z,24.36
2022-08-04T14:02:33.742Z,24.73
2022-08-04T14:05:33.821Z,24.81
2022-08-04T14:08:20.288Z,24.76
2022-08-04T14:12:06.542Z,24.26
2022-08-04T14:17:50.727Z,24.81
2022-08-04T14:20:48.493Z,24.63
2022-08-04T14:23:24.853Z,24.69
2022-08-04T14:29:59.050Z,24.77
2022-08-04T14:32:57.990Z,24.51
2022-08-04T14:40:08.944Z,24.22
2022-08-04T14:43:12.304Z,24.50
2022-08-04T14:49:42.547Z,24.48
2022-08-04T14:52:30.211Z,24.26
2022-08-04T14:55:56.533Z,23.75
2022-08-04T14:58:39.254Z,23.80
2022-08-04T15:06:05.411Z,23.64
2022-08-04T15:12:16.041Z,23.79
2022-08-04T15:16:07.120Z,24.12
2022-08-04T15:18:41.938Z,23.77
2022-08-04T15:28:27.653Z,23.62
2022-08-04T15:35:30.911Z,23.62
2022-08-04T15:38:41.025Z,23.37
2022-08-04T15:45:18.489Z,23.67
2022-08-04T15:52:19.731Z,23.21
2022-08-04T15:55:36.562Z,23.30
2022-08-04T15:59:02.463Z,23.34
2022-08-04T16:02:11.348Z,23.22
2022-08-04T16:04:49.027Z,23.22
2022-08-04T16:08:03.918Z,23.09
2022-08-04T16:11:16.206Z,23.69
2022-08-04T16:20:53.628Z,25.45
2022-08-04T16:27:45.796Z,26.32
2022-08-04T16:30:46.865Z,26.47
2022-08-04T16:34:54.570Z,26.81
2022-08-04T16:38:06.243Z,27.11
2022-08-04T16:41:51.125Z,27.22
2022-08-04T16:48:11.642Z,27.61
2022-08-04T16:51:15.148Z,27.98
2022-08-04T16:54:03.054Z,28.73
2022-08-04T16:57:38.767Z,29.01
2022-08-04T17:00:40.511Z,29.50
2022-08-04T17:03:43.916Z,29.66
2022-08-04T17:14:35.490Z,30.87
2022-08-04T17:18:05.573Z,31.26
2022-08-04T17:21:01.603Z,31.85
2022-08-04T17:24:15.412Z,32.31
2022-08-04T17:26:39.895Z,32.85
2022-08-04T17:29:19.683Z,33.21
2022-08-04T17:31:54.678Z,33.58
2022-08-04T17:34:29.801Z,33.79
2022-08-04T17:37:38.045Z,33.97
2022-08-04T17:40:13.480Z,34.30
2022-08-04T17:42:46.497Z,34.64
2022-08-04T17:45:50.815Z,34.94
2022-08-04T17:48:25.989Z,35.29
2022-08-04T17:50:59.860Z,35.85
2022-08-04T17:54:02.312Z,36.02
2022-08-04T17:56:43.152Z,36.02
2022-08-04T17:59:49.795Z,36.61
2022-08-04T18:02:32.414Z,36.79
2022-08-04T18:05:14.493Z,36.91
2022-08-04T18:08:38.395Z,37.26
2022-08-04T18:10:55.630Z,37.71
2022-08-04T18:13:29.918Z,37.87
2022-08-04T18:19:19.033Z,38.50
2022-08-04T18:21:59.659Z,38.74
2022-08-04T18:24:55.517Z,39.03
2022-08-04T18:27:32.612Z,39.32
2022-08-04T18:30:33.742Z,39.45
2022-08-04T18:33:40.392Z,39.84
2022-08-04T18:36:35.002Z,40.59
2022-08-04T18:40:09.838Z,40.66
2022-08-04T18:42:49.814Z,40.85
2022-08-04T18:45:34.402Z,40.84
2022-08-04T18:48:37.398Z,41.00
2022-08-04T18:51:48.887Z,41.29
2022-08-04T18:54:29.511Z,41.58
2022-08-04T18:58:00.904Z,41.57
2022-08-04T19:00:53.847Z,41.77
2022-08-04T19:03:33.421Z,41.67
2022-08-04T19:06:10.505Z,41.81
2022-08-04T19:08:45.357Z,42.00
2022-08-04T19:11:37.849Z,42.10
2022-08-04T19:14:13.907Z,42.29
2022-08-04T19:16:48.597Z,42.45
2022-08-04T19:19:21.572Z,42.79
2022-08-04T19:22:14.426Z,42.98
2022-08-04T19:25:09.016Z,43.28
2022-08-04T19:27:42.006Z,43.62
2022-08-04T19:30:17.609Z,43.78
2022-08-04T19:32:52.033Z,44.00
2022-08-04T19:35:46.360Z,44.11
2022-08-04T19:38:28.406Z,44.34
2022-08-04T19:42:06.247Z,44.66
2022-08-04T19:45:05.285Z,44.97
2022-08-04T19:48:21.997Z,45.20
2022-08-04T19:51:01.032Z,45.25
2022-08-04T19:54:02.855Z,45.27
2022-08-04T19:57:10.181Z,45.59
2022-08-04T20:00:34.107Z,45.75
2022-08-04T20:03:13.333Z,46.04
2022-08-04T20:05:55.842Z,46.18
2022-08-04T20:08:31.338Z,46.36
2022-08-04T20:11:03.967Z,46.54
2022-08-04T20:13:37.656Z,46.68
2022-08-04T20:16:28.673Z,46.78
2022-08-04T20:19:06.244Z,47.01
2022-08-04T20:21:55.544Z,47.12
2022-08-04T20:24:38.115Z,47.30
2022-08-04T20:27:21.960Z,47.58
2022-08-04T20:29:56.411Z,47.73
2022-08-04T20:32:29.838Z,47.68
2022-08-04T20:35:03.668Z,47.90
2022-08-04T20:37:55.103Z,47.83
2022-08-04T20:40:30.737Z,48.04
2022-08-04T20:43:05.395Z,48.10
2022-08-04T20:45:57.050Z,48.48
2022-08-04T20:48:33.842Z,48.50
2022-08-04T20:51:06.603Z,48.48
2022-08-04T20:53:52.944Z,48.75
2022-08-04T20:56:30.945Z,49.13
2022-08-04T20:59:07.749Z,49.31
2022-08-04T21:01:45.341Z,49.41
2022-08-04T21:04:36.511Z,49.53
2022-08-04T21:07:11.508Z,49.75
2022-08-04T21:09:49.926Z,49.73
2022-08-04T21:12:27.482Z,49.81
2022-08-04T21:15:14.169Z,50.12
2022-08-04T21:17:59.597Z,50.14
2022-08-04T21:20:42.407Z,50.31
2022-08-04T21:23:16.399Z,50.33
2022-08-04T21:25:51.201Z,50.45
2022-08-04T21:28:23.230Z,50.64
2022-08-04T21:30:59.600Z,50.66
2022-08-04T21:33:50.519Z,50.88
2022-08-04T21:36:27.417Z,50.75
2022-08-04T21:39:00.840Z,50.91
2022-08-04T21:41:44.582Z,50.94
2022-08-04T21:44:30.119Z,50.85
2022-08-04T21:47:04.502Z,50.93
2022-08-04T21:49:56.710Z,50.90
2022-08-04T21:52:32.133Z,51.12
2022-08-04T21:55:05.906Z,51.26
2022-08-04T21:57:42.067Z,51.31
2022-08-04T22:00:19.627Z,51.45
2022-08-04T22:02:54.512Z,51.57
2022-08-04T22:05:27.404Z,51.58
2022-08-04T22:08:06.931Z,51.69
2022-08-04T22:10:52.012Z,51.72
2022-08-04T22:13:24.073Z,51.80
2022-08-04T22:16:16.787Z,51.91
2022-08-04T22:18:50.003Z,51.98
2022-08-04T22:21:26.917Z,52.08
2022-08-04T22:24:01.151Z,52.32
2022-08-04T22:26:35.806Z,52.39
2022-08-04T22:29:14.568Z,52.43
2022-08-04T22:31:55.547Z,52.71
2022-08-04T22:34:30.378Z,52.65
2022-08-04T22:37:13.693Z,52.84
2022-08-04T22:39:56.882Z,53.08
2022-08-04T22:42:29.475Z,53.19
2022-08-04T22:45:05.201Z,53.33
2022-08-04T22:47:40.409Z,53.38
2022-08-04T22:50:26.897Z,53.52
2022-08-04T22:53:01.144Z,53.86
2022-08-04T22:56:06.517Z,53.98
2022-08-04T22:58:28.643Z,54.32
2022-08-04T23:01:01.424Z,54.54
2022-08-04T23:03:39.118Z,54.63
2022-08-04T23:06:13.283Z,54.90
2022-08-04T23:08:46.708Z,55.09
2022-08-04T23:11:21.610Z,55.35
2022-08-04T23:13:54.290Z,55.42
2022-08-04T23:16:26.964Z,55.55
2022-08-04T23:19:09.630Z,55.82
2022-08-04T23:21:47.596Z,55.92
2022-08-04T23:24:31.329Z,56.17
2022-08-04T23:27:05.521Z,56.30
2022-08-04T23:29:54.622Z,56.32
2022-08-04T23:32:29.587Z,56.46
2022-08-04T23:35:07.181Z,56.68
2022-08-04T23:37:56.239Z,56.98
2022-08-04T23:40:34.377Z,57.16
2022-08-04T23:43:17.599Z,57.33
2022-08-04T23:45:54.320Z,57.78
2022-08-04T23:48:39.131Z,57.67
2022-08-04T23:51:15.606Z,57.80
2022-08-04T23:54:03.093Z,57.98
2022-08-04T23:56:39.902Z,58.29
2022-08-04T23:59:48.901Z,58.26
